SPTN/TCQ METAR and TAF weather

Enter ICAO airport designator
Station Type Date Time Source
SPTN METAR 2019/02/22 23:00 UTC NOAA

SPTN 222300Z 23009KT 9999 BKN050 21/16 Q1012 RMK PP000


Station Type Date Time Source
SPTN Decoded METAR 2019/02/22 23:00 UTC NOAA

Tacna, Peru (SPTN) 18-04S 070-18W 469M
Feb 22, 2019 - 06:00 PM EST / 2019.02.22 2300 UTC
Wind: from the SW (230 degrees) at 10 MPH (9 KT):0
Visibility: greater than 7 mile(s):0
Sky conditions: mostly cloudy
Temperature: 69 F (21 C)
Dew Point: 60 F (16 C)
Relative Humidity: 73%
Pressure (altimeter): 29.88 in. Hg (1012 hPa)
ob: SPTN 222300Z 23009KT 9999 BKN050 21/16 Q1012 RMK PP000
cycle: 23

Station Type Date Time Source
SPTN TAF 2019/02/22 18:33 UTC NOAA

TAF SPTN 221700Z 2218/2318 21011KT CAVOK TX31/2219Z TN19/2310Z
FM230000 24004KT CAVOK
BECMG 2314/2316 22010KT


Example: see airport list